Latest Weather Observations for Melville Water

IDW60801

Issued at 1:42 pm WST Wednesday 19 June 2019 (issued every 10 minutes, with the page automatically refreshed every 10 minutes)

About weather observations | Map of weather stations | Latest weather observations for WA | Other Formats
Station Details ID: 009091 Name: INNER DOLPHIN PYLON Lat: -31.99 Lon: 115.83 Height: 0.0 m
Data from the previous 72 hours. | See also: Recent months at Melville Water
Date/Time
WST
Temp
°C
App
Temp
°C
Dew
Point
°C
Rel
Hum
%
Delta-T
°C
Wind Press
QNH
hPa
Press
MSL
hPa
Rain since
9am
mm
Dir  Spd
km/h
Gust
km/h
Spd
kts
Gust
kts
19/01:30pm - - - - - NE 7 15 4 8 - - -
19/01:00pm - - - - - ENE 11 17 6 9 - - -
19/12:30pm - - - - - ENE 7 13 4 7 - - -
19/12:00pm - - - - - ENE 9 11 5 6 - - -
19/11:30am - - - - - ENE 7 11 4 6 - - -
19/11:00am - - - - - NE 7 13 4 7 - - -
19/10:30am - - - - - NE 9 13 5 7 - - -
19/10:00am - - - - - ENE 13 17 7 9 - - -
19/09:30am - - - - - ENE 13 17 7 9 - - -
19/09:00am - - - - - ENE 15 19 8 10 - - -
19/08:30am - - - - - ENE 9 13 5 7 - - -
19/08:00am - - - - - E 7 11 4 6 - - -
19/07:30am - - - - - SE 9 11 5 6 - - -
19/07:00am - - - - - ESE 7 9 4 5 - - -
19/06:30am - - - - - SE 2 6 1 3 - - -
19/06:00am - - - - - E 4 6 2 3 - - -
19/05:30am - - - - - E 4 4 2 2 - - -
19/05:00am - - - - - SE 2 4 1 2 - - -
19/04:30am - - - - - ESE 7 11 4 6 - - -
19/04:00am - - - - - E 7 9 4 5 - - -
19/03:30am - - - - - E 4 6 2 3 - - -
19/03:00am - - - - - ESE 7 11 4 6 - - -
19/02:30am - - - - - ESE 6 9 3 5 - - -
19/02:00am - - - - - ESE 9 9 5 5 - - -
19/01:30am - - - - - SE 9 11 5 6 - - -
19/01:00am - - - - - ESE 9 11 5 6 - - -
19/12:30am - - - - - ESE 7 9 4 5 - - -
19/12:00am - - - - - SE 7 9 4 5 - - -
 
Date/Time
WST
Temp
°C
App
Temp
°C
Dew
Point
°C
Rel
Hum
%
Delta-T
°C
Wind Press
QNH
hPa
Press
MSL
hPa
Rain since
9am
mm
Dir  Spd
km/h
Gust
km/h
Spd
kts
Gust
kts
18/11:30pm - - - - - ESE 9 11 5 6 - - -
18/11:00pm - - - - - ESE 7 11 4 6 - - -
18/10:30pm - - - - - ESE 6 9 3 5 - - -
18/10:00pm - - - - - ESE 9 11 5 6 - - -
18/09:30pm - - - - - SE 9 11 5 6 - - -
18/09:00pm - - - - - CALM 0 2 0 1 - - -
18/08:30pm - - - - - ESE 4 7 2 4 - - -
18/08:00pm - - - - - S 2 6 1 3 - - -
18/07:30pm - - - - - CALM 0 2 0 1 - - -
18/07:00pm - - - - - W 4 6 2 3 - - -
18/06:30pm - - - - - W 2 4 1 2 - - -
18/06:00pm - - - - - SW 4 7 2 4 - - -
18/05:30pm - - - - - WSW 7 9 4 5 - - -
18/05:00pm - - - - - WSW 9 11 5 6 - - -
18/04:30pm - - - - - SW 6 9 3 5 - - -
18/04:00pm - - - - - S 6 11 3 6 - - -
18/03:30pm - - - - - SSW 2 4 1 2 - - -
18/03:00pm - - - - - WSW 6 7 3 4 - - -
18/02:30pm - - - - - WSW 6 7 3 4 - - -
18/02:00pm - - - - - SW 2 2 1 1 - - -
18/01:30pm - - - - - CALM 0 2 0 1 - - -
18/01:00pm - - - - - SSW 2 4 1 2 - - -
18/12:30pm - - - - - CALM 0 2 0 1 - - -
18/12:00pm - - - - - CALM 0 2 0 1 - - -
18/11:30am - - - - - CALM 0 2 0 1 - - -
18/11:00am - - - - - E 4 6 2 3 - - -
18/10:30am - - - - - CALM 0 4 0 2 - - -
18/10:00am - - - - - ESE 2 4 1 2 - - -
18/09:30am - - - - - ESE 4 7 2 4 - - -
18/09:00am - - - - - SE 2 4 1 2 - - -
18/08:30am - - - - - CALM 0 6 0 3 - - -
18/08:00am - - - - - SSE 2 4 1 2 - - -
18/07:30am - - - - - SSE 7 11 4 6 - - -
18/07:00am - - - - - ESE 2 4 1 2 - - -
18/06:30am - - - - - ESE 4 6 2 3 - - -
18/06:00am - - - - - ESE 4 6 2 3 - - -
18/05:30am - - - - - SE 6 9 3 5 - - -
18/05:00am - - - - - SE 9 11 5 6 - - -
18/04:30am - - - - - SE 7 9 4 5 - - -
18/04:00am - - - - - SE 6 9 3 5 - - -
18/03:30am - - - - - SE 6 7 3 4 - - -
18/03:00am - - - - - ESE 7 9 4 5 - - -
18/02:30am - - - - - SE 7 9 4 5 - - -
18/02:00am - - - - - SE 6 7 3 4 - - -
18/01:30am - - - - - SE 6 7 3 4 - - -
18/01:00am - - - - - ESE 7 9 4 5 - - -
18/12:30am - - - - - ESE 6 7 3 4 - - -
18/12:00am - - - - - SE 7 9 4 5 - - -
 
Date/Time
WST
Temp
°C
App
Temp
°C
Dew
Point
°C
Rel
Hum
%
Delta-T
°C
Wind Press
QNH
hPa
Press
MSL
hPa
Rain since
9am
mm
Dir  Spd
km/h
Gust
km/h
Spd
kts
Gust
kts
17/11:30pm - - - - - SE 6 9 3 5 - - -
17/11:00pm - - - - - SE 9 15 5 8 - - -
17/10:30pm - - - - - SE 6 6 3 3 - - -
17/10:00pm - - - - - ESE 6 7 3 4 - - -
17/09:30pm - - - - - ESE 7 11 4 6 - - -
17/09:00pm - - - - - ESE 7 9 4 5 - - -
17/08:30pm - - - - - SE 11 13 6 7 - - -
17/08:00pm - - - - - SE 13 15 7 8 - - -
17/07:30pm - - - - - SE 11 13 6 7 - - -
17/07:00pm - - - - - SE 7 9 4 5 - - -
17/06:30pm - - - - - SE 7 7 4 4 - - -
17/06:00pm - - - - - SE 6 7 3 4 - - -
17/05:30pm - - - - - ESE 6 7 3 4 - - -
17/05:00pm - - - - - ESE 9 11 5 6 - - -
17/04:30pm - - - - - SE 9 13 5 7 - - -
17/04:00pm - - - - - SE 11 13 6 7 - - -
17/03:30pm - - - - - SSE 7 11 4 6 - - -
17/03:00pm - - - - - NE 6 9 3 5 - - -
17/02:30pm - - - - - SSE 9 13 5 7 - - -
17/02:00pm - - - - - SE 11 15 6 8 - - -
17/01:30pm - - - - - ESE 9 13 5 7 - - -
17/01:00pm - - - - - ESE 11 17 6 9 - - -
17/12:30pm - - - - - E 13 17 7 9 - - -
17/12:00pm - - - - - E 15 20 8 11 - - -
17/11:30am - - - - - ESE 13 19 7 10 - - -
17/11:00am - - - - - ESE 15 22 8 12 - - -
17/10:30am - - - - - ESE 11 15 6 8 - - -
17/10:00am - - - - - ESE 13 19 7 10 - - -
17/09:30am - - - - - ESE 15 19 8 10 - - -
17/09:00am - - - - - ESE 13 17 7 9 - - -
17/08:30am - - - - - ESE 7 13 4 7 - - -
17/08:00am - - - - - ESE 7 9 4 5 - - -
17/07:30am - - - - - SE 7 11 4 6 - - -
17/07:00am - - - - - ESE 7 9 4 5 - - -
17/06:30am - - - - - E 4 6 2 3 - - -
17/06:00am - - - - - ESE 6 9 3 5 - - -
17/05:30am - - - - - SE 9 11 5 6 - - -
17/05:00am - - - - - SSE 13 15 7 8 - - -
17/04:30am - - - - - SSE 13 17 7 9 - - -
17/04:00am - - - - - SSE 13 15 7 8 - - -
17/03:30am - - - - - SE 13 17 7 9 - - -
17/03:00am - - - - - SSE 13 17 7 9 - - -
17/02:30am - - - - - S 13 17 7 9 - - -
17/02:00am - - - - - SSE 4 7 2 4 - - -
17/01:30am - - - - - S 6 7 3 4 - - -
17/01:00am - - - - - NW 2 4 1 2 - - -
17/12:30am - - - - - NNW 4 4 2 2 - - -
17/12:00am - - - - - NW 2 4 1 2 - - -
 
Date/Time
WST
Temp
°C
App
Temp
°C
Dew
Point
°C
Rel
Hum
%
Delta-T
°C
Wind Press
QNH
hPa
Press
MSL
hPa
Rain since
9am
mm
Dir  Spd
km/h
Gust
km/h
Spd
kts
Gust
kts
16/11:30pm - - - - - SE 2 4 1 2 - - -
16/11:00pm - - - - - E 4 6 2 3 - - -
16/10:30pm - - - - - E 4 6 2 3 - - -
16/10:00pm - - - - - CALM 0 2 0 1 - - -
16/09:30pm - - - - - NNE 4 6 2 3 - - -
16/09:00pm - - - - - E 4 6 2 3 - - -
16/08:30pm - - - - - CALM 0 2 0 1 - - -
16/08:00pm - - - - - NNW 2 4 1 2 - - -
16/07:30pm - - - - - SSW 6 7 3 4 - - -
16/07:00pm - - - - - S 11 11 6 6 - - -
16/06:30pm - - - - - SSW 11 17 6 9 - - -
16/06:00pm - - - - - SW 13 19 7 10 - - -
16/05:30pm - - - - - SSW 15 20 8 11 - - -
16/05:00pm - - - - - SSW 15 19 8 10 - - -
16/04:30pm - - - - - SW 17 24 9 13 - - -
16/04:00pm - - - - - SSW 13 20 7 11 - - -
16/03:30pm - - - - - SW 11 19 6 10 - - -
16/03:00pm - - - - - SW 24 32 13 17 - - -
16/02:30pm - - - - - WSW 19 26 10 14 - - -
16/02:00pm - - - - - WSW 15 24 8 13 - - -

Other formats

Comma delimited format used in spreadsheet applications
http://www.bom.gov.au/fwo/IDW60801/IDW60801.95620.axf

JavaScript Object Notation format (JSON) in row-major order
http://www.bom.gov.au/fwo/IDW60801/IDW60801.95620.json

Data quality

Most of these data are generated automatically and are frequently updated. Quality checks on data are not normally performed. It is possible for incorrect values to appear. Refer to information at About Latest Weather Observations and please check the disclaimer before using these data.